sensor_id;sensor_type;location;lat;lon;timestamp;P1;durP1;ratioP1;P2;durP2;ratioP2
4274;SDS011;2151;50.988;11.068;2024-01-15T00:01:58;124.30;;;11.07;;
4274;SDS011;2151;50.988;11.068;2024-01-15T00:04:24;120.80;;;9.50;;
4274;SDS011;2151;50.988;11.068;2024-01-15T00:06:51;122.50;;;10.27;;
4274;SDS011;2151;50.988;11.068;2024-01-15T00:09:18;121.37;;;10.10;;
4274;SDS011;2151;50.988;11.068;2024-01-15T00:11:44;119.73;;;8.93;;
4274;SDS011;2151;50.988;11.068;2024-01-15T00:14:11;119.60;;;9.27;;
4274;SDS011;2151;50.988;11.068;2024-01-15T00:16:39;120.00;;;9.20;;
4274;SDS011;2151;50.988;11.068;2024-01-15T00:19:06;123.50;;;9.27;;
4274;SDS011;2151;50.988;11.068;2024-01-15T00:21:32;121.87;;;9.70;;
4274;SDS011;2151;50.988;11.068;2024-01-15T00:23:59;118.10;;;9.03;;
4274;SDS011;2151;50.988;11.068;2024-01-15T00:26:25;123.03;;;10.13;;
4274;SDS011;2151;50.988;11.068;2024-01-15T00:28:52;121.57;;;10.10;;
4274;SDS011;2151;50.988;11.068;2024-01-15T00:31:18;122.00;;;9.60;;
4274;SDS011;2151;50.988;11.068;2024-01-15T00:33:45;121.80;;;9.60;;
4274;SDS011;2151;50.988;11.068;2024-01-15T00:36:12;121.00;;;9.20;;
4274;SDS011;2151;50.988;11.068;2024-01-15T00:38:38;119.43;;;8.63;;
4274;SDS011;2151;50.988;11.068;2024-01-15T00:41:05;124.87;;;10.80;;
4274;SDS011;2151;50.988;11.068;2024-01-15T00:43:31;123.87;;;10.80;;
4274;SDS011;2151;50.988;11.068;2024-01-15T00:45:58;134.07;;;10.70;;
4274;SDS011;2151;50.988;11.068;2024-01-15T00:48:24;127.93;;;11.30;;
4274;SDS011;2151;50.988;11.068;2024-01-15T00:50:51;121.90;;;9.60;;
4274;SDS011;2151;50.988;11.068;2024-01-15T00:53:18;124.77;;;11.03;;
4274;SDS011;2151;50.988;11.068;2024-01-15T00:55:44;124.30;;;11.40;;
4274;SDS011;2151;50.988;11.068;2024-01-15T00:58:11;122.60;;;10.03;;
4274;SDS011;2151;50.988;11.068;2024-01-15T01:00:37;118.43;;;8.50;;
4274;SDS011;2151;50.988;11.068;2024-01-15T01:03:04;121.57;;;9.70;;
4274;SDS011;2151;50.988;11.068;2024-01-15T01:05:30;122.70;;;10.10;;
4274;SDS011;2151;50.988;11.068;2024-01-15T01:07:57;119.47;;;8.40;;
4274;SDS011;2151;50.988;11.068;2024-01-15T01:10:23;117.57;;;8.13;;
4274;SDS011;2151;50.988;11.068;2024-01-15T01:12:50;122.70;;;10.13;;
4274;SDS011;2151;50.988;11.068;2024-01-15T01:15:17;122.40;;;10.27;;
4274;SDS011;2151;50.988;11.068;2024-01-15T01:17:44;120.07;;;9.50;;
4274;SDS011;2151;50.988;11.068;2024-01-15T01:20:11;121.83;;;9.10;;
4274;SDS011;2151;50.988;11.068;2024-01-15T01:22:42;126.50;;;11.00;;
4274;SDS011;2151;50.988;11.068;2024-01-15T01:25:08;122.47;;;9.67;;
4274;SDS011;2151;50.988;11.068;2024-01-15T01:27:35;122.90;;;9.97;;
4274;SDS011;2151;50.988;11.068;2024-01-15T01:30:02;123.00;;;8.77;;
4274;SDS011;2151;50.988;11.068;2024-01-15T01:32:29;119.60;;;9.53;;
4274;SDS011;2151;50.988;11.068;2024-01-15T01:34:56;124.60;;;10.87;;
4274;SDS011;2151;50.988;11.068;2024-01-15T01:37:22;125.57;;;11.03;;
4274;SDS011;2151;50.988;11.068;2024-01-15T01:39:49;123.17;;;10.93;;
4274;SDS011;2151;50.988;11.068;2024-01-15T01:42:15;119.83;;;8.27;;
4274;SDS011;2151;50.988;11.068;2024-01-15T01:44:42;118.17;;;8.30;;
4274;SDS011;2151;50.988;11.068;2024-01-15T01:47:08;120.80;;;9.10;;
4274;SDS011;2151;50.988;11.068;2024-01-15T01:49:35;122.70;;;9.17;;
4274;SDS011;2151;50.988;11.068;2024-01-15T01:52:04;121.00;;;9.27;;
4274;SDS011;2151;50.988;11.068;2024-01-15T01:54:31;123.97;;;10.83;;
4274;SDS011;2151;50.988;11.068;2024-01-15T01:56:58;121.80;;;9.47;;
4274;SDS011;2151;50.988;11.068;2024-01-15T01:59:26;128.50;;;9.40;;
4274;SDS011;2151;50.988;11.068;2024-01-15T02:01:56;124.70;;;10.33;;
4274;SDS011;2151;50.988;11.068;2024-01-15T02:04:23;117.77;;;7.97;;
4274;SDS011;2151;50.988;11.068;2024-01-15T02:06:51;121.80;;;9.70;;
4274;SDS011;2151;50.988;11.068;2024-01-15T02:09:18;121.77;;;9.50;;
4274;SDS011;2151;50.988;11.068;2024-01-15T02:11:49;117.83;;;8.23;;
4274;SDS011;2151;50.988;11.068;2024-01-15T02:14:16;117.77;;;8.20;;
4274;SDS011;2151;50.988;11.068;2024-01-15T02:16:42;119.40;;;9.53;;
4274;SDS011;2151;50.988;11.068;2024-01-15T02:19:16;122.17;;;9.27;;
4274;SDS011;2151;50.988;11.068;2024-01-15T02:21:43;122.60;;;10.10;;
4274;SDS011;2151;50.988;11.068;2024-01-15T02:24:10;122.07;;;9.43;;
4274;SDS011;2151;50.988;11.068;2024-01-15T02:26:37;123.90;;;10.07;;
4274;SDS011;2151;50.988;11.068;2024-01-15T02:29:04;121.40;;;8.83;;
4274;SDS011;2151;50.988;11.068;2024-01-15T02:31:32;117.87;;;8.10;;
4274;SDS011;2151;50.988;11.068;2024-01-15T02:33:58;123.20;;;10.10;;
4274;SDS011;2151;50.988;11.068;2024-01-15T02:36:25;119.13;;;8.87;;
4274;SDS011;2151;50.988;11.068;2024-01-15T02:38:51;116.10;;;6.90;;
4274;SDS011;2151;50.988;11.068;2024-01-15T02:41:18;120.90;;;8.83;;
4274;SDS011;2151;50.988;11.068;2024-01-15T02:43:44;118.90;;;8.50;;
4274;SDS011;2151;50.988;11.068;2024-01-15T02:46:11;119.37;;;8.77;;
4274;SDS011;2151;50.988;11.068;2024-01-15T02:48:38;119.87;;;8.00;;
4274;SDS011;2151;50.988;11.068;2024-01-15T02:51:05;120.60;;;8.60;;
4274;SDS011;2151;50.988;11.068;2024-01-15T02:53:31;121.67;;;9.33;;
4274;SDS011;2151;50.988;11.068;2024-01-15T02:55:58;121.57;;;9.90;;
4274;SDS011;2151;50.988;11.068;2024-01-15T02:58:24;118.23;;;8.20;;
4274;SDS011;2151;50.988;11.068;2024-01-15T03:00:50;118.53;;;8.40;;
4274;SDS011;2151;50.988;11.068;2024-01-15T03:03:17;122.40;;;9.77;;
4274;SDS011;2151;50.988;11.068;2024-01-15T03:05:44;121.30;;;8.87;;
4274;SDS011;2151;50.988;11.068;2024-01-15T03:08:10;117.33;;;8.00;;
4274;SDS011;2151;50.988;11.068;2024-01-15T03:10:37;121.50;;;9.77;;
4274;SDS011;2151;50.988;11.068;2024-01-15T03:13:03;122.07;;;9.10;;
4274;SDS011;2151;50.988;11.068;2024-01-15T03:15:30;117.70;;;7.80;;
4274;SDS011;2151;50.988;11.068;2024-01-15T03:17:56;119.30;;;8.50;;
4274;SDS011;2151;50.988;11.068;2024-01-15T03:20:23;118.57;;;8.07;;
4274;SDS011;2151;50.988;11.068;2024-01-15T03:22:49;121.50;;;9.10;;
4274;SDS011;2151;50.988;11.068;2024-01-15T03:25:22;121.80;;;8.90;;
4274;SDS011;2151;50.988;11.068;2024-01-15T03:27:49;119.77;;;8.77;;
4274;SDS011;2151;50.988;11.068;2024-01-15T03:30:16;115.93;;;6.87;;
4274;SDS011;2151;50.988;11.068;2024-01-15T03:32:43;117.57;;;7.83;;
4274;SDS011;2151;50.988;11.068;2024-01-15T03:35:10;118.27;;;8.17;;
4274;SDS011;2151;50.988;11.068;2024-01-15T03:37:36;117.30;;;7.87;;
4274;SDS011;2151;50.988;11.068;2024-01-15T03:40:04;115.70;;;7.90;;
4274;SDS011;2151;50.988;11.068;2024-01-15T03:42:31;116.30;;;7.30;;
4274;SDS011;2151;50.988;11.068;2024-01-15T03:44:57;120.90;;;9.38;;
4274;SDS011;2151;50.988;11.068;2024-01-15T03:47:24;126.63;;;9.20;;
4274;SDS011;2151;50.988;11.068;2024-01-15T03:49:51;128.90;;;9.27;;
4274;SDS011;2151;50.988;11.068;2024-01-15T03:52:17;118.30;;;8.37;;
4274;SDS011;2151;50.988;11.068;2024-01-15T03:54:44;122.87;;;9.73;;
4274;SDS011;2151;50.988;11.068;2024-01-15T03:57:10;119.67;;;8.83;;
4274;SDS011;2151;50.988;11.068;2024-01-15T03:59:37;120.43;;;9.00;;
4274;SDS011;2151;50.988;11.068;2024-01-15T04:02:04;119.50;;;9.07;;
4274;SDS011;2151;50.988;11.068;2024-01-15T04:04:30;124.77;;;9.77;;
4274;SDS011;2151;50.988;11.068;2024-01-15T04:06:57;118.87;;;9.00;;
4274;SDS011;2151;50.988;11.068;2024-01-15T04:09:23;119.90;;;9.23;;
4274;SDS011;2151;50.988;11.068;2024-01-15T04:11:52;118.47;;;7.70;;
4274;SDS011;2151;50.988;11.068;2024-01-15T04:14:20;117.87;;;7.80;;
4274;SDS011;2151;50.988;11.068;2024-01-15T04:16:47;118.60;;;8.67;;
4274;SDS011;2151;50.988;11.068;2024-01-15T04:19:13;118.57;;;8.10;;
4274;SDS011;2151;50.988;11.068;2024-01-15T04:21:40;121.83;;;7.27;;
4274;SDS011;2151;50.988;11.068;2024-01-15T04:24:07;117.87;;;8.23;;
4274;SDS011;2151;50.988;11.068;2024-01-15T04:26:34;117.17;;;8.03;;
4274;SDS011;2151;50.988;11.068;2024-01-15T04:29:00;116.00;;;8.00;;
4274;SDS011;2151;50.988;11.068;2024-01-15T04:31:27;119.17;;;8.40;;
4274;SDS011;2151;50.988;11.068;2024-01-15T04:33:54;117.57;;;8.53;;
4274;SDS011;2151;50.988;11.068;2024-01-15T04:36:20;119.77;;;9.27;;
4274;SDS011;2151;50.988;11.068;2024-01-15T04:38:47;117.07;;;7.40;;
4274;SDS011;2151;50.988;11.068;2024-01-15T04:41:14;118.70;;;8.83;;
4274;SDS011;2151;50.988;11.068;2024-01-15T04:43:41;121.40;;;9.23;;
4274;SDS011;2151;50.988;11.068;2024-01-15T04:46:07;122.67;;;9.83;;
4274;SDS011;2151;50.988;11.068;2024-01-15T04:48:34;116.37;;;7.60;;
4274;SDS011;2151;50.988;11.068;2024-01-15T04:51:03;119.70;;;8.80;;
4274;SDS011;2151;50.988;11.068;2024-01-15T04:53:30;118.67;;;8.80;;
4274;SDS011;2151;50.988;11.068;2024-01-15T04:55:56;128.60;;;8.60;;
4274;SDS011;2151;50.988;11.068;2024-01-15T04:58:23;117.30;;;7.73;;
4274;SDS011;2151;50.988;11.068;2024-01-15T05:00:52;115.93;;;7.80;;
4274;SDS011;2151;50.988;11.068;2024-01-15T05:03:19;121.33;;;8.87;;
4274;SDS011;2151;50.988;11.068;2024-01-15T05:05:45;119.47;;;8.33;;
4274;SDS011;2151;50.988;11.068;2024-01-15T05:08:12;119.77;;;9.27;;
4274;SDS011;2151;50.988;11.068;2024-01-15T05:10:38;118.50;;;8.40;;
4274;SDS011;2151;50.988;11.068;2024-01-15T05:13:05;116.80;;;7.40;;
4274;SDS011;2151;50.988;11.068;2024-01-15T05:15:32;117.40;;;8.07;;
4274;SDS011;2151;50.988;11.068;2024-01-15T05:17:58;117.33;;;7.60;;
4274;SDS011;2151;50.988;11.068;2024-01-15T05:20:25;115.77;;;7.17;;
4274;SDS011;2151;50.988;11.068;2024-01-15T05:22:53;115.70;;;7.30;;
4274;SDS011;2151;50.988;11.068;2024-01-15T05:25:20;117.77;;;7.73;;
4274;SDS011;2151;50.988;11.068;2024-01-15T05:27:47;127.00;;;9.27;;
4274;SDS011;2151;50.988;11.068;2024-01-15T05:30:13;116.17;;;7.43;;
4274;SDS011;2151;50.988;11.068;2024-01-15T05:32:40;129.03;;;7.40;;
4274;SDS011;2151;50.988;11.068;2024-01-15T05:35:07;118.87;;;8.37;;
4274;SDS011;2151;50.988;11.068;2024-01-15T05:37:33;117.90;;;8.30;;
4274;SDS011;2151;50.988;11.068;2024-01-15T05:40:00;120.23;;;7.40;;
4274;SDS011;2151;50.988;11.068;2024-01-15T05:42:26;120.07;;;9.23;;
4274;SDS011;2151;50.988;11.068;2024-01-15T05:44:56;118.97;;;8.67;;
4274;SDS011;2151;50.988;11.068;2024-01-15T05:47:22;120.63;;;9.53;;
4274;SDS011;2151;50.988;11.068;2024-01-15T05:49:50;121.03;;;8.13;;
4274;SDS011;2151;50.988;11.068;2024-01-15T05:52:16;118.63;;;8.50;;
4274;SDS011;2151;50.988;11.068;2024-01-15T05:54:43;118.33;;;8.40;;
4274;SDS011;2151;50.988;11.068;2024-01-15T05:57:10;120.00;;;9.40;;
4274;SDS011;2151;50.988;11.068;2024-01-15T05:59:36;118.57;;;8.47;;
4274;SDS011;2151;50.988;11.068;2024-01-15T06:02:03;119.27;;;8.80;;
4274;SDS011;2151;50.988;11.068;2024-01-15T06:04:29;114.33;;;7.10;;
4274;SDS011;2151;50.988;11.068;2024-01-15T06:06:56;118.73;;;8.77;;
4274;SDS011;2151;50.988;11.068;2024-01-15T06:09:23;118.40;;;7.90;;
4274;SDS011;2151;50.988;11.068;2024-01-15T06:11:49;128.40;;;10.07;;
4274;SDS011;2151;50.988;11.068;2024-01-15T06:14:16;115.60;;;7.53;;
4274;SDS011;2151;50.988;11.068;2024-01-15T06:16:42;117.47;;;8.23;;
4274;SDS011;2151;50.988;11.068;2024-01-15T06:19:09;116.30;;;8.20;;
4274;SDS011;2151;50.988;11.068;2024-01-15T06:21:35;119.87;;;9.50;;
4274;SDS011;2151;50.988;11.068;2024-01-15T06:24:02;118.37;;;7.77;;
4274;SDS011;2151;50.988;11.068;2024-01-15T06:26:29;121.67;;;9.17;;
4274;SDS011;2151;50.988;11.068;2024-01-15T06:28:55;117.50;;;8.50;;
4274;SDS011;2151;50.988;11.068;2024-01-15T06:31:22;118.37;;;7.83;;
4274;SDS011;2151;50.988;11.068;2024-01-15T06:33:49;117.70;;;8.20;;
4274;SDS011;2151;50.988;11.068;2024-01-15T06:36:16;118.50;;;8.10;;
4274;SDS011;2151;50.988;11.068;2024-01-15T06:38:45;117.07;;;7.30;;
4274;SDS011;2151;50.988;11.068;2024-01-15T06:41:12;117.43;;;7.47;;
4274;SDS011;2151;50.988;11.068;2024-01-15T06:43:38;122.20;;;9.03;;
4274;SDS011;2151;50.988;11.068;2024-01-15T06:46:05;118.13;;;8.50;;
4274;SDS011;2151;50.988;11.068;2024-01-15T06:48:34;121.00;;;8.93;;
4274;SDS011;2151;50.988;11.068;2024-01-15T06:51:01;123.40;;;9.00;;
4274;SDS011;2151;50.988;11.068;2024-01-15T06:53:28;120.07;;;8.77;;
4274;SDS011;2151;50.988;11.068;2024-01-15T06:55:54;117.70;;;8.03;;
4274;SDS011;2151;50.988;11.068;2024-01-15T06:58:21;119.87;;;8.93;;
4274;SDS011;2151;50.988;11.068;2024-01-15T07:00:48;117.47;;;7.43;;
4274;SDS011;2151;50.988;11.068;2024-01-15T07:03:14;117.10;;;7.23;;
4274;SDS011;2151;50.988;11.068;2024-01-15T07:05:41;116.67;;;7.97;;
4274;SDS011;2151;50.988;11.068;2024-01-15T07:08:08;117.40;;;8.07;;
4274;SDS011;2151;50.988;11.068;2024-01-15T07:10:34;119.90;;;8.83;;
4274;SDS011;2151;50.988;11.068;2024-01-15T07:13:03;116.67;;;7.13;;
4274;SDS011;2151;50.988;11.068;2024-01-15T07:15:31;117.70;;;8.00;;
4274;SDS011;2151;50.988;11.068;2024-01-15T07:17:57;117.50;;;8.20;;
4274;SDS011;2151;50.988;11.068;2024-01-15T07:20:24;119.27;;;8.67;;
4274;SDS011;2151;50.988;11.068;2024-01-15T07:22:51;118.80;;;7.97;;
4274;SDS011;2151;50.988;11.068;2024-01-15T07:25:17;118.07;;;8.17;;
4274;SDS011;2151;50.988;11.068;2024-01-15T07:27:44;120.10;;;8.03;;
4274;SDS011;2151;50.988;11.068;2024-01-15T07:30:11;117.57;;;7.70;;
4274;SDS011;2151;50.988;11.068;2024-01-15T07:32:38;118.37;;;8.20;;
4274;SDS011;2151;50.988;11.068;2024-01-15T07:35:05;119.63;;;7.93;;
4274;SDS011;2151;50.988;11.068;2024-01-15T07:37:32;120.00;;;8.30;;
4274;SDS011;2151;50.988;11.068;2024-01-15T07:39:59;117.40;;;7.80;;
4274;SDS011;2151;50.988;11.068;2024-01-15T07:42:27;119.90;;;8.20;;
4274;SDS011;2151;50.988;11.068;2024-01-15T07:44:53;120.87;;;8.10;;
4274;SDS011;2151;50.988;11.068;2024-01-15T07:47:20;118.00;;;8.07;;
4274;SDS011;2151;50.988;11.068;2024-01-15T07:49:47;115.60;;;6.90;;
4274;SDS011;2151;50.988;11.068;2024-01-15T07:52:14;115.77;;;7.47;;
4274;SDS011;2151;50.988;11.068;2024-01-15T07:54:40;120.87;;;7.77;;
4274;SDS011;2151;50.988;11.068;2024-01-15T07:57:07;118.47;;;6.93;;
4274;SDS011;2151;50.988;11.068;2024-01-15T07:59:34;117.50;;;7.23;;
4274;SDS011;2151;50.988;11.068;2024-01-15T08:02:01;120.20;;;7.37;;
4274;SDS011;2151;50.988;11.068;2024-01-15T08:04:31;117.70;;;7.67;;
4274;SDS011;2151;50.988;11.068;2024-01-15T08:06:58;121.60;;;9.00;;
4274;SDS011;2151;50.988;11.068;2024-01-15T08:09:24;118.37;;;8.13;;
4274;SDS011;2151;50.988;11.068;2024-01-15T08:11:51;118.27;;;7.80;;
4274;SDS011;2151;50.988;11.068;2024-01-15T08:14:17;117.77;;;8.10;;
4274;SDS011;2151;50.988;11.068;2024-01-15T08:16:44;121.00;;;8.20;;
4274;SDS011;2151;50.988;11.068;2024-01-15T08:19:11;120.00;;;8.37;;
4274;SDS011;2151;50.988;11.068;2024-01-15T08:21:38;117.67;;;7.70;;
4274;SDS011;2151;50.988;11.068;2024-01-15T08:24:04;116.13;;;7.50;;
4274;SDS011;2151;50.988;11.068;2024-01-15T08:26:32;121.70;;;8.67;;
4274;SDS011;2151;50.988;11.068;2024-01-15T08:28:58;118.90;;;8.00;;
4274;SDS011;2151;50.988;11.068;2024-01-15T08:31:25;120.20;;;8.33;;
4274;SDS011;2151;50.988;11.068;2024-01-15T08:33:52;122.30;;;7.70;;
4274;SDS011;2151;50.988;11.068;2024-01-15T08:36:21;116.30;;;7.50;;
4274;SDS011;2151;50.988;11.068;2024-01-15T08:38:47;117.97;;;7.90;;
4274;SDS011;2151;50.988;11.068;2024-01-15T08:41:14;117.90;;;8.10;;
4274;SDS011;2151;50.988;11.068;2024-01-15T08:43:40;120.07;;;8.10;;
4274;SDS011;2151;50.988;11.068;2024-01-15T08:46:07;117.90;;;8.30;;
4274;SDS011;2151;50.988;11.068;2024-01-15T08:48:34;124.00;;;8.43;;
4274;SDS011;2151;50.988;11.068;2024-01-15T08:51:01;115.37;;;7.13;;
4274;SDS011;2151;50.988;11.068;2024-01-15T08:53:27;122.00;;;8.87;;
4274;SDS011;2151;50.988;11.068;2024-01-15T08:55:54;119.27;;;7.93;;
4274;SDS011;2151;50.988;11.068;2024-01-15T08:58:20;115.60;;;7.20;;
4274;SDS011;2151;50.988;11.068;2024-01-15T09:00:47;124.97;;;8.87;;
4274;SDS011;2151;50.988;11.068;2024-01-15T09:03:14;114.97;;;6.77;;
4274;SDS011;2151;50.988;11.068;2024-01-15T09:05:41;119.47;;;9.20;;
4274;SDS011;2151;50.988;11.068;2024-01-15T09:08:10;120.30;;;8.67;;
4274;SDS011;2151;50.988;11.068;2024-01-15T09:10:37;127.60;;;8.33;;
4274;SDS011;2151;50.988;11.068;2024-01-15T09:13:03;118.87;;;8.30;;
4274;SDS011;2151;50.988;11.068;2024-01-15T09:15:31;123.03;;;8.37;;
4274;SDS011;2151;50.988;11.068;2024-01-15T09:17:57;116.57;;;7.03;;
4274;SDS011;2151;50.988;11.068;2024-01-15T09:20:25;115.37;;;6.80;;
4274;SDS011;2151;50.988;11.068;2024-01-15T09:22:53;118.87;;;7.87;;
4274;SDS011;2151;50.988;11.068;2024-01-15T09:25:21;123.10;;;7.67;;
4274;SDS011;2151;50.988;11.068;2024-01-15T09:27:48;123.80;;;8.30;;
4274;SDS011;2151;50.988;11.068;2024-01-15T09:30:15;117.30;;;7.80;;
4274;SDS011;2151;50.988;11.068;2024-01-15T09:32:42;115.60;;;7.20;;
4274;SDS011;2151;50.988;11.068;2024-01-15T09:35:09;120.00;;;7.60;;
4274;SDS011;2151;50.988;11.068;2024-01-15T09:37:36;117.37;;;7.30;;
4274;SDS011;2151;50.988;11.068;2024-01-15T09:40:13;118.17;;;8.07;;
4274;SDS011;2151;50.988;11.068;2024-01-15T09:42:43;121.50;;;8.67;;
4274;SDS011;2151;50.988;11.068;2024-01-15T09:45:10;118.93;;;7.73;;
4274;SDS011;2151;50.988;11.068;2024-01-15T09:47:37;116.10;;;6.93;;
4274;SDS011;2151;50.988;11.068;2024-01-15T09:50:11;117.07;;;7.77;;
4274;SDS011;2151;50.988;11.068;2024-01-15T09:52:38;119.23;;;8.10;;
4274;SDS011;2151;50.988;11.068;2024-01-15T09:55:05;120.57;;;7.83;;
4274;SDS011;2151;50.988;11.068;2024-01-15T09:57:32;117.20;;;7.40;;
4274;SDS011;2151;50.988;11.068;2024-01-15T09:59:59;116.87;;;7.30;;
4274;SDS011;2151;50.988;11.068;2024-01-15T10:02:27;118.97;;;7.50;;
4274;SDS011;2151;50.988;11.068;2024-01-15T10:04:54;118.97;;;8.67;;
4274;SDS011;2151;50.988;11.068;2024-01-15T10:07:21;119.97;;;8.30;;
4274;SDS011;2151;50.988;11.068;2024-01-15T10:09:48;118.63;;;8.77;;
4274;SDS011;2151;50.988;11.068;2024-01-15T10:12:15;117.27;;;7.00;;
4274;SDS011;2151;50.988;11.068;2024-01-15T10:14:41;116.50;;;7.20;;
4274;SDS011;2151;50.988;11.068;2024-01-15T10:17:13;120.30;;;7.50;;
4274;SDS011;2151;50.988;11.068;2024-01-15T10:19:40;117.70;;;7.87;;
4274;SDS011;2151;50.988;11.068;2024-01-15T10:22:13;119.77;;;8.37;;
4274;SDS011;2151;50.988;11.068;2024-01-15T10:24:40;121.67;;;7.90;;
4274;SDS011;2151;50.988;11.068;2024-01-15T10:27:07;122.37;;;8.80;;
4274;SDS011;2151;50.988;11.068;2024-01-15T10:29:35;119.70;;;8.50;;
4274;SDS011;2151;50.988;11.068;2024-01-15T10:32:03;119.77;;;7.57;;
4274;SDS011;2151;50.988;11.068;2024-01-15T10:34:30;119.83;;;7.23;;
4274;SDS011;2151;50.988;11.068;2024-01-15T10:36:57;116.67;;;7.90;;
4274;SDS011;2151;50.988;11.068;2024-01-15T10:39:24;117.07;;;7.53;;
4274;SDS011;2151;50.988;11.068;2024-01-15T10:41:51;116.80;;;7.53;;
4274;SDS011;2151;50.988;11.068;2024-01-15T10:44:18;118.00;;;7.10;;
4274;SDS011;2151;50.988;11.068;2024-01-15T10:46:45;116.60;;;6.73;;
4274;SDS011;2151;50.988;11.068;2024-01-15T10:49:12;121.43;;;7.77;;
4274;SDS011;2151;50.988;11.068;2024-01-15T10:51:39;116.97;;;6.60;;
4274;SDS011;2151;50.988;11.068;2024-01-15T10:54:07;117.57;;;7.40;;
4274;SDS011;2151;50.988;11.068;2024-01-15T10:56:37;115.80;;;7.20;;
4274;SDS011;2151;50.988;11.068;2024-01-15T10:59:04;114.13;;;6.67;;
4274;SDS011;2151;50.988;11.068;2024-01-15T11:01:30;118.47;;;7.40;;
4274;SDS011;2151;50.988;11.068;2024-01-15T11:03:57;115.77;;;7.00;;
4274;SDS011;2151;50.988;11.068;2024-01-15T11:06:24;115.07;;;6.57;;
4274;SDS011;2151;50.988;11.068;2024-01-15T11:08:52;114.57;;;6.47;;
4274;SDS011;2151;50.988;11.068;2024-01-15T11:11:19;121.70;;;8.00;;
4274;SDS011;2151;50.988;11.068;2024-01-15T11:13:47;114.30;;;6.47;;
4274;SDS011;2151;50.988;11.068;2024-01-15T11:16:16;120.53;;;7.27;;
4274;SDS011;2151;50.988;11.068;2024-01-15T11:18:43;117.83;;;7.67;;
4274;SDS011;2151;50.988;11.068;2024-01-15T11:23:43;115.80;;;6.83;;
4274;SDS011;2151;50.988;11.068;2024-01-15T11:26:36;116.17;;;7.33;;
4274;SDS011;2151;50.988;11.068;2024-01-15T11:29:04;121.00;;;8.10;;
4274;SDS011;2151;50.988;11.068;2024-01-15T11:34:08;115.73;;;6.73;;
4274;SDS011;2151;50.988;11.068;2024-01-15T11:41:54;124.57;;;7.50;;
4274;SDS011;2151;50.988;11.068;2024-01-15T11:44:21;115.27;;;6.40;;
4274;SDS011;2151;50.988;11.068;2024-01-15T11:47:07;114.37;;;6.60;;
4274;SDS011;2151;50.988;11.068;2024-01-15T11:52:07;116.37;;;6.93;;
4274;SDS011;2151;50.988;11.068;2024-01-15T11:54:40;115.73;;;7.73;;
4274;SDS011;2151;50.988;11.068;2024-01-15T11:57:09;114.97;;;6.83;;
4274;SDS011;2151;50.988;11.068;2024-01-15T11:59:39;114.27;;;6.43;;
4274;SDS011;2151;50.988;11.068;2024-01-15T12:02:05;115.80;;;7.07;;
4274;SDS011;2151;50.988;11.068;2024-01-15T12:04:32;119.60;;;7.77;;
4274;SDS011;2151;50.988;11.068;2024-01-15T12:06:59;117.43;;;7.70;;
4274;SDS011;2151;50.988;11.068;2024-01-15T12:09:25;115.63;;;6.73;;
4274;SDS011;2151;50.988;11.068;2024-01-15T12:11:59;116.23;;;7.13;;
4274;SDS011;2151;50.988;11.068;2024-01-15T12:14:32;117.30;;;6.40;;
4274;SDS011;2151;50.988;11.068;2024-01-15T12:16:58;116.50;;;7.17;;
4274;SDS011;2151;50.988;11.068;2024-01-15T12:19:28;117.07;;;8.03;;
4274;SDS011;2151;50.988;11.068;2024-01-15T12:21:55;114.87;;;6.23;;
4274;SDS011;2151;50.988;11.068;2024-01-15T12:24:22;116.60;;;7.20;;
4274;SDS011;2151;50.988;11.068;2024-01-15T12:26:49;113.87;;;5.90;;
4274;SDS011;2151;50.988;11.068;2024-01-15T12:29:18;115.83;;;7.20;;
4274;SDS011;2151;50.988;11.068;2024-01-15T12:31:47;119.30;;;8.03;;
4274;SDS011;2151;50.988;11.068;2024-01-15T12:34:14;114.77;;;6.57;;
4274;SDS011;2151;50.988;11.068;2024-01-15T12:36:41;117.17;;;7.50;;
4274;SDS011;2151;50.988;11.068;2024-01-15T12:39:11;114.90;;;7.00;;
4274;SDS011;2151;50.988;11.068;2024-01-15T12:41:38;113.20;;;6.50;;
4274;SDS011;2151;50.988;11.068;2024-01-15T12:44:05;115.80;;;6.73;;
4274;SDS011;2151;50.988;11.068;2024-01-15T12:46:32;114.70;;;6.70;;
4274;SDS011;2151;50.988;11.068;2024-01-15T12:48:59;116.30;;;7.50;;
4274;SDS011;2151;50.988;11.068;2024-01-15T12:51:26;117.50;;;8.10;;
4274;SDS011;2151;50.988;11.068;2024-01-15T12:53:55;114.50;;;7.07;;
4274;SDS011;2151;50.988;11.068;2024-01-15T12:56:22;114.47;;;7.07;;
4274;SDS011;2151;50.988;11.068;2024-01-15T12:58:48;117.70;;;7.53;;
4274;SDS011;2151;50.988;11.068;2024-01-15T13:01:15;115.97;;;7.37;;
4274;SDS011;2151;50.988;11.068;2024-01-15T13:03:41;116.67;;;7.00;;
4274;SDS011;2151;50.988;11.068;2024-01-15T13:06:08;116.60;;;7.50;;
4274;SDS011;2151;50.988;11.068;2024-01-15T13:08:34;117.37;;;7.60;;
4274;SDS011;2151;50.988;11.068;2024-01-15T13:11:01;117.13;;;7.10;;
4274;SDS011;2151;50.988;11.068;2024-01-15T13:13:28;115.07;;;6.90;;
4274;SDS011;2151;50.988;11.068;2024-01-15T13:15:54;116.17;;;6.80;;
4274;SDS011;2151;50.988;11.068;2024-01-15T13:18:21;116.87;;;7.73;;
4274;SDS011;2151;50.988;11.068;2024-01-15T13:20:48;116.43;;;7.10;;
4274;SDS011;2151;50.988;11.068;2024-01-15T13:23:15;116.17;;;7.20;;
4274;SDS011;2151;50.988;11.068;2024-01-15T13:25:42;116.10;;;7.80;;
4274;SDS011;2151;50.988;11.068;2024-01-15T13:28:09;117.77;;;7.67;;
4274;SDS011;2151;50.988;11.068;2024-01-15T13:30:35;115.30;;;7.27;;
4274;SDS011;2151;50.988;11.068;2024-01-15T13:33:03;116.37;;;7.60;;
4274;SDS011;2151;50.988;11.068;2024-01-15T13:35:31;116.07;;;6.70;;
4274;SDS011;2151;50.988;11.068;2024-01-15T13:37:58;116.43;;;6.97;;
4274;SDS011;2151;50.988;11.068;2024-01-15T13:40:25;115.17;;;6.50;;
4274;SDS011;2151;50.988;11.068;2024-01-15T13:42:52;116.57;;;7.50;;
4274;SDS011;2151;50.988;11.068;2024-01-15T13:45:20;118.40;;;8.40;;
4274;SDS011;2151;50.988;11.068;2024-01-15T13:47:47;113.13;;;5.83;;
4274;SDS011;2151;50.988;11.068;2024-01-15T13:50:14;116.57;;;7.37;;
4274;SDS011;2151;50.988;11.068;2024-01-15T13:52:41;116.33;;;7.53;;
4274;SDS011;2151;50.988;11.068;2024-01-15T13:55:08;119.67;;;8.20;;
4274;SDS011;2151;50.988;11.068;2024-01-15T13:57:36;118.17;;;6.90;;
4274;SDS011;2151;50.988;11.068;2024-01-15T14:00:02;114.97;;;6.70;;
4274;SDS011;2151;50.988;11.068;2024-01-15T14:02:35;116.57;;;7.00;;
4274;SDS011;2151;50.988;11.068;2024-01-15T14:05:02;114.90;;;7.07;;
4274;SDS011;2151;50.988;11.068;2024-01-15T14:07:29;115.90;;;7.83;;
4274;SDS011;2151;50.988;11.068;2024-01-15T14:09:56;116.87;;;7.00;;
4274;SDS011;2151;50.988;11.068;2024-01-15T14:12:24;119.27;;;8.57;;
4274;SDS011;2151;50.988;11.068;2024-01-15T14:14:52;116.87;;;7.87;;
4274;SDS011;2151;50.988;11.068;2024-01-15T14:17:19;116.40;;;7.33;;
4274;SDS011;2151;50.988;11.068;2024-01-15T14:19:45;116.90;;;7.50;;
4274;SDS011;2151;50.988;11.068;2024-01-15T14:22:12;117.00;;;8.17;;
4274;SDS011;2151;50.988;11.068;2024-01-15T14:24:40;116.37;;;7.60;;
4274;SDS011;2151;50.988;11.068;2024-01-15T14:27:06;115.53;;;7.17;;
4274;SDS011;2151;50.988;11.068;2024-01-15T14:29:33;115.77;;;7.00;;
4274;SDS011;2151;50.988;11.068;2024-01-15T14:32:00;117.90;;;7.50;;
4274;SDS011;2151;50.988;11.068;2024-01-15T14:34:26;119.70;;;7.83;;
4274;SDS011;2151;50.988;11.068;2024-01-15T14:36:53;115.03;;;6.43;;
4274;SDS011;2151;50.988;11.068;2024-01-15T14:39:22;115.67;;;7.30;;
4274;SDS011;2151;50.988;11.068;2024-01-15T14:41:49;117.00;;;7.53;;
4274;SDS011;2151;50.988;11.068;2024-01-15T14:44:16;116.70;;;7.57;;
4274;SDS011;2151;50.988;11.068;2024-01-15T14:46:43;116.77;;;7.50;;